createdAt,value
2022-09-11T00:04:40.069Z,13.70
2022-09-11T00:09:42.996Z,13.66
2022-09-11T00:14:45.908Z,13.48
2022-09-11T00:19:50.215Z,13.50
2022-09-11T00:24:53.099Z,13.30
2022-09-11T00:29:56.001Z,13.38
2022-09-11T00:35:00.416Z,13.32
2022-09-11T00:40:04.127Z,13.10
2022-09-11T00:45:09.122Z,13.30
2022-09-11T00:50:19.461Z,13.09
2022-09-11T00:55:27.688Z,13.03
2022-09-11T01:00:31.095Z,13.06
2022-09-11T01:05:38.104Z,13.11
2022-09-11T01:10:51.640Z,12.88
2022-09-11T01:16:06.278Z,13.03
2022-09-11T01:21:52.606Z,13.04
2022-09-11T01:27:11.159Z,13.03
2022-09-11T01:32:22.137Z,12.90
2022-09-11T01:37:31.285Z,13.01
2022-09-11T01:42:37.976Z,12.78
2022-09-11T01:47:46.114Z,12.76
2022-09-11T01:52:53.249Z,12.82
2022-09-11T01:58:01.147Z,12.74
2022-09-11T02:03:11.892Z,12.79
2022-09-11T02:08:19.709Z,12.89
2022-09-11T02:13:29.784Z,12.72
2022-09-11T02:18:42.542Z,12.74
2022-09-11T02:23:45.668Z,12.71
2022-09-11T02:28:52.189Z,12.64
2022-09-11T02:33:57.911Z,12.54
2022-09-11T02:39:15.188Z,12.59
2022-09-11T02:44:29.914Z,12.63
2022-09-11T02:49:45.124Z,12.42
2022-09-11T02:54:55.108Z,12.46
2022-09-11T03:00:01.423Z,12.51
2022-09-11T03:05:09.447Z,12.49
2022-09-11T03:10:12.990Z,12.52
2022-09-11T03:15:17.422Z,12.50
2022-09-11T03:20:22.107Z,12.31
2022-09-11T03:25:28.280Z,12.29
2022-09-11T03:30:34.231Z,12.39
2022-09-11T03:35:38.705Z,12.36
2022-09-11T03:40:43.925Z,12.40
2022-09-11T03:45:51.118Z,12.46
2022-09-11T03:50:55.643Z,12.29
2022-09-11T03:55:58.658Z,12.35
2022-09-11T04:01:01.721Z,12.36
2022-09-11T04:06:08.103Z,12.43
2022-09-11T04:11:12.780Z,12.41
2022-09-11T04:16:19.544Z,12.35
2022-09-11T04:21:29.127Z,12.38
2022-09-11T04:26:34.236Z,12.37
2022-09-11T04:31:45.224Z,12.43
2022-09-11T04:36:51.807Z,12.41
2022-09-11T04:41:57.566Z,12.40
2022-09-11T04:47:00.513Z,12.43
2022-09-11T04:52:07.357Z,12.52
2022-09-11T04:57:10.832Z,12.63
2022-09-11T05:02:15.237Z,12.68
2022-09-11T05:07:25.279Z,12.93
2022-09-11T05:12:31.875Z,13.15
2022-09-11T05:17:35.416Z,13.37
2022-09-11T05:22:41.761Z,13.36
2022-09-11T05:27:44.849Z,13.31
2022-09-11T05:32:48.101Z,13.29
2022-09-11T05:37:53.564Z,13.43
2022-09-11T05:42:56.747Z,13.51
2022-09-11T05:48:00.399Z,13.48
2022-09-11T05:53:05.557Z,13.86
2022-09-11T05:58:08.795Z,14.11
2022-09-11T06:03:15.392Z,13.96
2022-09-11T06:08:20.324Z,13.94
2022-09-11T06:13:23.321Z,13.98
2022-09-11T06:18:28.072Z,14.02
2022-09-11T06:23:32.493Z,14.15
2022-09-11T06:28:36.328Z,14.05
2022-09-11T06:33:41.512Z,13.88
2022-09-11T06:38:46.641Z,13.83
2022-09-11T06:43:53.951Z,13.87
2022-09-11T06:48:57.633Z,13.98
2022-09-11T06:54:05.576Z,14.07
2022-09-11T06:59:11.506Z,14.22
2022-09-11T07:04:14.396Z,14.27
2022-09-11T07:09:20.287Z,14.38
2022-09-11T07:14:27.788Z,14.42
2022-09-11T07:19:40.991Z,13.67
2022-09-11T07:24:47.325Z,13.86
2022-09-11T07:29:51.287Z,14.20
2022-09-11T07:34:54.545Z,14.29
2022-09-11T07:39:58.964Z,14.25
2022-09-11T07:45:05.755Z,14.77
2022-09-11T07:50:10.177Z,15.34
2022-09-11T07:55:16.444Z,16.27
2022-09-11T08:00:20.198Z,16.05
2022-09-11T08:05:23.053Z,16.79
2022-09-11T08:10:28.255Z,16.59
2022-09-11T08:15:32.844Z,16.98
2022-09-11T08:20:37.328Z,17.09
2022-09-11T08:25:41.724Z,16.40
2022-09-11T08:30:45.737Z,15.71
2022-09-11T08:35:49.328Z,15.38
2022-09-11T08:40:54.911Z,15.53
2022-09-11T08:46:04.920Z,15.39
2022-09-11T08:51:08.824Z,15.02
2022-09-11T08:56:18.429Z,15.54
2022-09-11T09:01:27.248Z,15.49
2022-09-11T09:06:44.345Z,15.26
2022-09-11T09:11:57.626Z,15.15
2022-09-11T09:17:05.826Z,14.29
2022-09-11T09:22:18.867Z,13.91
2022-09-11T09:27:30.661Z,13.79
2022-09-11T09:32:39.120Z,14.25
2022-09-11T09:37:42.923Z,14.54
2022-09-11T09:43:13.944Z,14.16
2022-09-11T09:48:17.566Z,13.85
2022-09-11T09:53:32.773Z,13.58
2022-09-11T09:58:42.489Z,13.58
2022-09-11T10:03:45.492Z,13.66
2022-09-11T10:08:48.677Z,13.81
2022-09-11T10:13:57.286Z,14.02
2022-09-11T10:19:00.430Z,13.99
2022-09-11T10:24:20.467Z,14.40
2022-09-11T10:29:29.336Z,14.18
2022-09-11T10:34:37.853Z,13.84
2022-09-11T10:39:43.081Z,13.59
2022-09-11T10:44:49.512Z,13.94
2022-09-11T10:50:20.351Z,13.83
2022-09-11T10:55:24.067Z,14.15
2022-09-11T11:00:30.483Z,14.09
2022-09-11T11:05:42.828Z,14.25
2022-09-11T11:11:00.248Z,14.18
2022-09-11T11:16:14.644Z,13.66
2022-09-11T11:21:32.420Z,13.38
2022-09-11T11:26:50.588Z,13.24
2022-09-11T11:32:10.651Z,13.60
2022-09-11T11:37:17.977Z,13.66
2022-09-11T11:42:27.059Z,13.71
2022-09-11T11:47:36.691Z,13.68
2022-09-11T11:52:51.074Z,13.44
2022-09-11T11:58:01.656Z,13.72
2022-09-11T12:03:12.496Z,13.84
2022-09-11T12:08:16.825Z,13.33
2022-09-11T12:13:21.400Z,13.28
2022-09-11T12:18:26.764Z,13.08
2022-09-11T12:23:56.916Z,12.94
2022-09-11T12:29:33.308Z,13.28
2022-09-11T12:35:00.847Z,13.40
2022-09-11T12:40:09.070Z,13.43
2022-09-11T12:45:31.345Z,13.31
2022-09-11T12:50:36.713Z,13.27
2022-09-11T12:55:43.603Z,13.60
2022-09-11T13:00:50.494Z,13.61
2022-09-11T13:05:58.064Z,14.32
2022-09-11T13:11:39.488Z,14.79
2022-09-11T13:16:47.192Z,15.47
2022-09-11T13:21:53.518Z,15.91
2022-09-11T13:26:59.801Z,14.98
2022-09-11T13:32:11.353Z,15.76
2022-09-11T13:37:26.571Z,16.00
2022-09-11T13:42:30.414Z,16.10
2022-09-11T13:47:35.229Z,16.05
2022-09-11T13:52:41.899Z,16.03
2022-09-11T13:57:53.724Z,16.47
2022-09-11T14:02:56.740Z,16.52
2022-09-11T14:08:04.719Z,16.76
2022-09-11T14:13:16.127Z,17.11
2022-09-11T14:18:26.593Z,16.95
2022-09-11T14:23:31.847Z,16.51
2022-09-11T14:28:37.719Z,16.74
2022-09-11T14:33:40.801Z,16.75
2022-09-11T14:38:45.539Z,17.38
2022-09-11T14:43:49.603Z,17.63
2022-09-11T14:48:52.647Z,17.63
2022-09-11T14:53:58.425Z,17.89
2022-09-11T14:59:01.413Z,17.48
2022-09-11T15:04:04.927Z,17.39
2022-09-11T15:09:09.313Z,17.52
2022-09-11T15:14:23.630Z,17.60
2022-09-11T15:19:35.635Z,17.31
2022-09-11T15:24:40.099Z,17.51
2022-09-11T15:29:43.620Z,17.53
2022-09-11T15:34:47.475Z,17.31
2022-09-11T15:39:52.245Z,17.29
2022-09-11T15:44:56.096Z,17.63
2022-09-11T15:50:00.202Z,17.36
2022-09-11T15:55:05.417Z,17.05
2022-09-11T16:00:10.038Z,16.96
2022-09-11T16:05:15.971Z,17.16
2022-09-11T16:10:21.027Z,17.18
2022-09-11T16:15:23.915Z,16.89
2022-09-11T16:20:27.004Z,16.53
2022-09-11T16:25:31.352Z,16.66
2022-09-11T16:30:43.625Z,16.29
2022-09-11T16:35:58.110Z,16.31
2022-09-11T16:41:03.921Z,16.20
2022-09-11T16:46:08.649Z,16.13
2022-09-11T16:51:12.337Z,15.97
2022-09-11T16:56:18.782Z,15.99
2022-09-11T17:01:24.401Z,15.94
2022-09-11T17:06:30.087Z,15.85
2022-09-11T17:11:34.933Z,15.71
2022-09-11T17:16:39.094Z,15.59
2022-09-11T17:21:42.270Z,15.57
2022-09-11T17:26:48.203Z,15.30
2022-09-11T17:32:05.146Z,15.23
2022-09-11T17:37:14.164Z,15.06
2022-09-11T17:42:18.500Z,14.98
2022-09-11T17:47:21.603Z,14.89
2022-09-11T17:52:24.567Z,14.97
2022-09-11T17:57:28.849Z,14.73
2022-09-11T18:02:31.811Z,14.84
2022-09-11T18:07:34.856Z,14.69
2022-09-11T18:12:39.163Z,14.60
2022-09-11T18:17:42.137Z,14.63
2022-09-11T18:22:45.228Z,14.70
2022-09-11T18:27:51.273Z,14.74
2022-09-11T18:32:54.187Z,14.51
2022-09-11T18:37:57.542Z,14.47
2022-09-11T18:43:02.129Z,14.48
2022-09-11T18:48:05.163Z,14.47
2022-09-11T18:53:08.106Z,14.48
2022-09-11T18:58:12.449Z,14.41
2022-09-11T19:03:20.731Z,14.25
2022-09-11T19:08:24.252Z,13.97
2022-09-11T19:13:28.597Z,13.92
2022-09-11T19:18:31.575Z,13.86
2022-09-11T19:23:36.981Z,14.03
2022-09-11T19:28:43.173Z,13.84
2022-09-11T19:33:46.309Z,13.93
2022-09-11T19:38:51.648Z,14.04
2022-09-11T19:43:56.381Z,13.91
2022-09-11T19:49:00.935Z,14.04
2022-09-11T19:54:05.094Z,13.86
2022-09-11T19:59:10.206Z,13.90
2022-09-11T20:04:13.625Z,13.93
2022-09-11T20:09:32.836Z,14.08
2022-09-11T20:14:41.857Z,13.84
2022-09-11T20:19:45.804Z,13.79
2022-09-11T20:24:49.711Z,13.76
2022-09-11T20:29:55.297Z,13.79
2022-09-11T20:35:00.368Z,13.76
2022-09-11T20:40:04.941Z,13.81
2022-09-11T20:45:10.343Z,13.84
2022-09-11T20:50:14.137Z,13.82
2022-09-11T20:55:17.132Z,13.72
2022-09-11T21:00:21.520Z,13.83
2022-09-11T21:05:24.465Z,13.76
2022-09-11T21:10:28.466Z,13.75
2022-09-11T21:15:32.758Z,13.80
2022-09-11T21:20:35.688Z,13.83
2022-09-11T21:25:41.444Z,13.82
2022-09-11T21:30:45.745Z,13.76
2022-09-11T21:35:53.524Z,13.63
2022-09-11T21:40:56.977Z,13.60
2022-09-11T21:46:01.572Z,13.66
2022-09-11T21:51:10.047Z,13.54
2022-09-11T21:56:18.283Z,13.53
2022-09-11T22:01:24.267Z,13.46
2022-09-11T22:06:27.588Z,13.56
2022-09-11T22:11:30.546Z,13.51
2022-09-11T22:16:34.903Z,13.42
2022-09-11T22:21:37.849Z,13.40
2022-09-11T22:26:40.808Z,13.38
2022-09-11T22:31:45.311Z,13.42
2022-09-11T22:36:48.395Z,13.36
2022-09-11T22:41:51.316Z,13.44
2022-09-11T22:46:55.602Z,13.48
2022-09-11T22:51:58.491Z,13.45
2022-09-11T22:57:01.523Z,13.42
2022-09-11T23:02:06.799Z,13.46
2022-09-11T23:07:18.814Z,13.46
2022-09-11T23:12:21.774Z,13.36
2022-09-11T23:17:26.458Z,13.31
2022-09-11T23:22:29.465Z,13.30
2022-09-11T23:27:32.937Z,13.47
2022-09-11T23:32:41.659Z,13.48
2022-09-11T23:37:45.585Z,13.20
2022-09-11T23:42:48.572Z,13.23
2022-09-11T23:47:53.423Z,13.10
2022-09-11T23:52:56.347Z,13.30
2022-09-11T23:57:59.381Z,13.36
